createdAt,value
2023-03-01T00:00:35.628Z,153.20
2023-03-01T00:04:04.985Z,130.80
2023-03-01T00:07:31.652Z,139.60
2023-03-01T00:11:08.038Z,132.60
2023-03-01T00:14:34.935Z,136.10
2023-03-01T00:18:02.024Z,144.00
2023-03-01T00:21:32.326Z,134.20
2023-03-01T00:25:04.119Z,130.50
2023-03-01T00:28:31.200Z,140.80
2023-03-01T00:31:57.750Z,140.20
2023-03-01T00:35:25.480Z,134.40
2023-03-01T00:38:53.685Z,138.20
2023-03-01T00:42:20.947Z,136.40
2023-03-01T00:45:48.446Z,144.80
2023-03-01T00:49:15.625Z,141.10
2023-03-01T00:52:43.479Z,139.40
2023-03-01T00:56:13.269Z,144.20
2023-03-01T00:59:41.346Z,129.10
2023-03-01T01:03:15.193Z,119.50
2023-03-01T01:06:50.679Z,117.30
2023-03-01T01:10:19.183Z,131.30
2023-03-01T01:13:46.579Z,129.70
2023-03-01T01:17:13.490Z,127.60
2023-03-01T01:20:41.224Z,131.20
2023-03-01T01:24:09.882Z,127.10
2023-03-01T01:27:37.558Z,115.60
2023-03-01T01:31:04.321Z,120.40
2023-03-01T01:34:30.932Z,112.70
2023-03-01T01:37:58.174Z,109.50
2023-03-01T01:41:27.182Z,114.00
2023-03-01T01:45:33.361Z,106.70
2023-03-01T01:49:04.677Z,99.80
2023-03-01T01:52:37.544Z,92.20
2023-03-01T01:56:09.324Z,87.80
2023-03-01T01:59:37.389Z,89.10
2023-03-01T02:03:07.545Z,87.50
2023-03-01T02:06:39.319Z,87.90
2023-03-01T02:10:07.408Z,87.10
2023-03-01T02:13:34.979Z,86.40
2023-03-01T02:17:02.991Z,87.80
2023-03-01T02:20:36.013Z,92.90
2023-03-01T02:24:13.049Z,87.20
2023-03-01T02:27:46.692Z,86.10
2023-03-01T02:31:38.516Z,82.80
2023-03-01T02:35:07.837Z,78.30
2023-03-01T02:38:34.693Z,86.50
2023-03-01T02:42:01.850Z,80.70
2023-03-01T02:45:29.921Z,78.90
2023-03-01T02:49:00.043Z,80.70
2023-03-01T02:52:42.198Z,78.70
2023-03-01T02:56:14.160Z,79.40
2023-03-01T02:59:43.887Z,82.90
2023-03-01T03:03:11.009Z,79.70
2023-03-01T03:06:38.262Z,78.70
2023-03-01T03:10:05.949Z,72.90
2023-03-01T03:13:33.458Z,71.40
2023-03-01T03:17:00.405Z,68.90
2023-03-01T03:20:29.884Z,71.40
2023-03-01T03:23:58.377Z,68.60
2023-03-01T03:27:26.035Z,64.50
2023-03-01T03:30:52.748Z,68.80
2023-03-01T03:34:19.421Z,71.40
2023-03-01T03:38:04.648Z,67.30
2023-03-01T03:41:31.434Z,67.00
2023-03-01T03:44:58.487Z,73.30
2023-03-01T03:48:25.859Z,62.70
2023-03-01T03:51:52.820Z,61.10
2023-03-01T03:55:20.856Z,62.00
2023-03-01T03:58:48.177Z,55.00
2023-03-01T04:02:23.439Z,54.60
2023-03-01T04:05:51.793Z,54.30
2023-03-01T04:09:18.357Z,57.70
2023-03-01T04:12:46.020Z,55.70
2023-03-01T04:16:12.503Z,52.80
2023-03-01T04:19:39.322Z,55.20
2023-03-01T04:23:14.566Z,53.80
2023-03-01T04:26:41.865Z,56.50
2023-03-01T04:30:12.203Z,59.90
2023-03-01T04:33:39.766Z,67.60
2023-03-01T04:37:06.270Z,67.10
2023-03-01T04:40:34.534Z,62.60
2023-03-01T04:44:01.765Z,63.00
2023-03-01T04:47:28.323Z,65.80
2023-03-01T04:50:54.984Z,71.30
2023-03-01T04:54:22.155Z,64.30
2023-03-01T04:57:49.826Z,66.30
2023-03-01T05:01:20.025Z,72.40
2023-03-01T05:04:47.315Z,71.60
2023-03-01T05:08:18.652Z,72.70
2023-03-01T05:11:45.815Z,60.90
2023-03-01T05:15:14.516Z,58.10
2023-03-01T05:18:42.871Z,60.70
2023-03-01T05:22:09.377Z,59.30
2023-03-01T05:25:41.598Z,66.10
2023-03-01T05:29:11.010Z,63.90
2023-03-01T05:32:40.174Z,67.00
2023-03-01T05:36:09.435Z,59.80
2023-03-01T05:39:36.246Z,66.70
2023-03-01T05:43:06.361Z,61.80
2023-03-01T05:46:32.960Z,59.20
2023-03-01T05:50:00.012Z,64.60
2023-03-01T05:53:27.732Z,67.60
2023-03-01T05:56:54.879Z,77.80
2023-03-01T06:00:24.436Z,73.70
2023-03-01T06:03:51.079Z,70.70
2023-03-01T06:07:17.789Z,71.90
2023-03-01T06:10:44.983Z,68.60
2023-03-01T06:14:16.051Z,70.00
2023-03-01T06:17:45.254Z,74.00
2023-03-01T06:21:12.028Z,70.90
2023-03-01T06:24:38.650Z,66.70
2023-03-01T06:28:05.706Z,62.30
2023-03-01T06:31:32.740Z,64.20
2023-03-01T06:34:59.786Z,62.20
2023-03-01T06:38:26.767Z,57.40
2023-03-01T06:41:54.295Z,57.60
2023-03-01T06:45:23.364Z,52.90
2023-03-01T06:48:52.427Z,53.60
2023-03-01T06:52:20.780Z,51.50
2023-03-01T06:55:49.237Z,53.20
2023-03-01T06:59:16.556Z,50.70
2023-03-01T07:02:43.531Z,45.60
2023-03-01T07:06:11.794Z,49.20
2023-03-01T07:09:38.750Z,43.20
2023-03-01T07:13:07.945Z,41.70
2023-03-01T07:16:35.659Z,45.70
2023-03-01T07:20:02.859Z,38.60
2023-03-01T07:23:29.658Z,45.50
2023-03-01T07:26:56.684Z,40.20
2023-03-01T07:30:23.724Z,45.20
2023-03-01T07:33:50.927Z,39.70
2023-03-01T07:37:17.889Z,35.10
2023-03-01T07:40:44.765Z,35.50
2023-03-01T07:44:13.815Z,39.10
2023-03-01T07:47:40.678Z,35.30
2023-03-01T07:51:09.985Z,39.80
2023-03-01T07:54:38.113Z,33.70
2023-03-01T07:58:04.812Z,40.20
2023-03-01T08:01:31.619Z,38.10
2023-03-01T08:04:58.460Z,36.90
2023-03-01T08:08:25.873Z,41.50
2023-03-01T08:11:53.681Z,37.90
2023-03-01T08:15:21.336Z,37.10
2023-03-01T08:18:48.000Z,41.60
2023-03-01T08:22:14.606Z,44.60
2023-03-01T08:25:42.010Z,40.80
2023-03-01T08:29:08.972Z,39.60
2023-03-01T08:32:40.014Z,35.10
2023-03-01T08:36:11.398Z,36.50
2023-03-01T08:39:38.438Z,39.10
2023-03-01T08:43:05.137Z,42.90
2023-03-01T08:46:34.030Z,36.00
2023-03-01T08:50:02.144Z,35.90
2023-03-01T08:53:28.922Z,35.50
2023-03-01T08:56:55.911Z,37.70
2023-03-01T09:00:27.146Z,34.60
2023-03-01T09:03:53.894Z,34.90
2023-03-01T09:07:20.698Z,32.60
2023-03-01T09:10:50.321Z,32.80
2023-03-01T09:14:17.509Z,34.70
2023-03-01T09:17:44.039Z,38.40
2023-03-01T09:21:13.125Z,40.10
2023-03-01T09:24:40.850Z,30.40
2023-03-01T09:28:27.570Z,36.30
2023-03-01T09:31:56.945Z,35.20
2023-03-01T09:35:24.136Z,30.70
2023-03-01T09:38:54.212Z,35.50
2023-03-01T09:42:21.645Z,27.40
2023-03-01T09:45:52.419Z,27.40
2023-03-01T09:49:25.667Z,23.70
2023-03-01T09:52:57.184Z,26.70
2023-03-01T09:56:27.897Z,25.60
2023-03-01T10:00:13.843Z,26.70
2023-03-01T10:03:46.530Z,30.20
2023-03-01T10:07:29.827Z,28.90
2023-03-01T10:10:57.780Z,30.40
2023-03-01T10:14:34.305Z,27.20
2023-03-01T10:18:08.757Z,26.10
2023-03-01T10:21:43.671Z,22.70
2023-03-01T10:25:15.570Z,24.20
2023-03-01T10:28:53.091Z,23.60
2023-03-01T10:32:25.046Z,27.00
2023-03-01T10:35:52.152Z,23.60
2023-03-01T10:39:22.000Z,24.10
2023-03-01T10:42:52.845Z,28.90
2023-03-01T10:46:31.075Z,20.50
2023-03-01T10:50:03.059Z,21.60
2023-03-01T10:53:34.625Z,20.70
2023-03-01T10:57:03.846Z,19.00
2023-03-01T11:00:31.454Z,22.10
2023-03-01T11:04:16.108Z,25.10
2023-03-01T11:07:53.105Z,19.70
2023-03-01T11:11:32.574Z,17.50
2023-03-01T11:15:01.482Z,27.00
2023-03-01T11:18:45.825Z,17.80
2023-03-01T11:22:20.813Z,21.00
2023-03-01T11:25:54.208Z,16.80
2023-03-01T11:29:43.224Z,23.20
2023-03-01T11:33:24.315Z,22.60
2023-03-01T11:36:56.347Z,20.30
2023-03-01T11:40:28.413Z,17.40
2023-03-01T11:44:02.023Z,21.70
2023-03-01T11:47:42.253Z,26.50
2023-03-01T11:51:18.451Z,23.20
2023-03-01T11:55:00.258Z,22.10
2023-03-01T11:58:44.679Z,21.80
2023-03-01T12:02:37.563Z,22.20
2023-03-01T12:06:25.313Z,22.00
2023-03-01T12:10:15.389Z,24.00
2023-03-01T12:14:15.277Z,23.80
2023-03-01T12:18:00.859Z,24.00
2023-03-01T12:21:42.225Z,21.10
2023-03-01T12:25:23.414Z,23.60
2023-03-01T12:29:09.045Z,23.70
2023-03-01T12:32:53.882Z,19.20
2023-03-01T12:36:34.143Z,23.60
2023-03-01T12:40:19.473Z,20.00
2023-03-01T12:43:59.712Z,22.70
2023-03-01T12:47:38.881Z,22.40
2023-03-01T12:51:12.099Z,20.00
2023-03-01T12:54:40.766Z,22.00
2023-03-01T12:58:22.466Z,22.90
2023-03-01T13:01:59.144Z,23.70
2023-03-01T13:05:37.707Z,26.70
2023-03-01T13:09:11.981Z,23.40
2023-03-01T13:12:53.888Z,25.50
2023-03-01T13:16:46.300Z,20.50
2023-03-01T13:20:19.737Z,23.80
2023-03-01T13:27:30.508Z,20.10
2023-03-01T13:30:57.298Z,18.30
2023-03-01T13:34:47.796Z,18.10
2023-03-01T13:38:56.382Z,19.30
2023-03-01T13:42:48.159Z,17.70
2023-03-01T13:46:23.163Z,18.00
2023-03-01T13:49:54.729Z,19.50
2023-03-01T13:53:25.247Z,21.40
2023-03-01T13:56:53.347Z,19.20
2023-03-01T14:00:38.762Z,20.90
2023-03-01T14:04:21.037Z,22.20
2023-03-01T14:07:55.003Z,21.10
2023-03-01T14:11:56.045Z,27.70
2023-03-01T14:15:30.516Z,27.50
2023-03-01T14:19:12.722Z,22.60
2023-03-01T14:22:43.206Z,20.90
2023-03-01T14:26:10.730Z,26.50
2023-03-01T14:29:42.405Z,25.10
2023-03-01T14:33:21.448Z,22.50
2023-03-01T14:36:48.222Z,20.30
2023-03-01T14:40:29.488Z,18.50
2023-03-01T14:43:59.792Z,21.90
2023-03-01T14:47:32.285Z,18.60
2023-03-01T14:51:01.261Z,19.70
2023-03-01T14:54:37.651Z,17.60
2023-03-01T14:58:07.791Z,17.90
2023-03-01T15:01:34.788Z,18.90
2023-03-01T15:05:08.564Z,14.10
2023-03-01T15:08:37.720Z,13.50
2023-03-01T15:12:24.954Z,13.80
2023-03-01T15:15:53.244Z,12.60
2023-03-01T15:19:22.894Z,13.10
2023-03-01T15:22:50.387Z,14.20
2023-03-01T15:26:30.484Z,13.90
2023-03-01T15:30:00.343Z,14.80
2023-03-01T15:33:37.282Z,14.30
2023-03-01T15:37:09.882Z,13.40
2023-03-01T15:40:39.368Z,13.70
2023-03-01T15:44:19.582Z,12.70
2023-03-01T15:47:52.501Z,10.10
2023-03-01T15:54:45.213Z,10.70
2023-03-01T15:58:17.803Z,12.10
2023-03-01T16:01:45.663Z,12.50
2023-03-01T16:05:21.447Z,14.90
2023-03-01T16:08:48.661Z,12.70
2023-03-01T16:12:19.015Z,10.20
2023-03-01T16:15:49.905Z,14.40
2023-03-01T16:19:17.015Z,11.50
2023-03-01T16:22:44.942Z,10.50
2023-03-01T16:26:12.495Z,11.70
2023-03-01T16:29:39.163Z,13.30
2023-03-01T16:33:28.822Z,13.00
2023-03-01T16:36:56.765Z,14.70
2023-03-01T16:40:25.790Z,16.50
2023-03-01T16:43:53.362Z,17.00
2023-03-01T16:47:20.826Z,17.60
2023-03-01T16:50:57.769Z,23.90
2023-03-01T16:54:24.819Z,22.90
2023-03-01T16:57:57.239Z,26.00
2023-03-01T17:01:27.124Z,22.60
2023-03-01T17:04:59.535Z,20.10
2023-03-01T17:08:31.193Z,20.20
2023-03-01T17:11:59.166Z,26.20
2023-03-01T17:15:26.550Z,26.10
2023-03-01T17:18:59.043Z,34.50
2023-03-01T17:22:28.562Z,25.80
2023-03-01T17:25:56.200Z,32.20
2023-03-01T17:29:23.650Z,30.00
2023-03-01T17:32:51.113Z,31.50
2023-03-01T17:36:19.535Z,38.00
2023-03-01T17:39:47.059Z,44.00
2023-03-01T17:43:14.363Z,46.30
2023-03-01T17:46:49.011Z,49.80
2023-03-01T17:50:18.837Z,52.40
2023-03-01T17:53:49.534Z,53.10
2023-03-01T17:57:22.564Z,51.30
2023-03-01T18:00:51.318Z,58.10
2023-03-01T18:04:19.396Z,58.10
2023-03-01T18:07:49.179Z,63.80
2023-03-01T18:11:16.722Z,59.70
2023-03-01T18:14:44.076Z,71.10
2023-03-01T18:18:11.098Z,65.20
2023-03-01T18:21:38.936Z,68.10
2023-03-01T18:25:12.071Z,80.60
2023-03-01T18:28:40.376Z,74.30
2023-03-01T18:32:08.116Z,83.40
2023-03-01T18:35:40.561Z,85.20
2023-03-01T18:39:11.415Z,83.50
2023-03-01T18:42:40.802Z,80.60
2023-03-01T18:46:09.868Z,76.70
2023-03-01T18:49:38.265Z,66.70
2023-03-01T18:53:10.268Z,65.40
2023-03-01T18:56:41.027Z,54.00
2023-03-01T19:00:12.244Z,56.20
2023-03-01T19:03:40.412Z,53.40
2023-03-01T19:07:08.697Z,47.80
2023-03-01T19:10:36.260Z,49.70
2023-03-01T19:14:05.504Z,45.00
2023-03-01T19:17:32.646Z,49.50
2023-03-01T19:21:04.117Z,46.80
2023-03-01T19:24:33.117Z,46.70
2023-03-01T19:28:01.597Z,41.50
2023-03-01T19:31:31.846Z,42.70
2023-03-01T19:34:58.527Z,48.90
2023-03-01T19:38:30.562Z,50.50
2023-03-01T19:42:02.313Z,48.60
2023-03-01T19:45:33.577Z,51.80
2023-03-01T19:49:03.305Z,58.40
2023-03-01T19:52:40.116Z,79.60
2023-03-01T19:56:09.039Z,99.00
2023-03-01T19:59:36.699Z,90.10
2023-03-01T20:03:04.463Z,86.90
2023-03-01T20:06:33.672Z,95.90
2023-03-01T20:10:09.415Z,94.10
2023-03-01T20:13:40.118Z,92.60
2023-03-01T20:17:08.162Z,107.70
2023-03-01T20:20:35.666Z,104.00
2023-03-01T20:24:05.677Z,106.60
2023-03-01T20:27:33.040Z,107.90
2023-03-01T20:31:06.896Z,109.50
2023-03-01T20:34:34.712Z,117.70
2023-03-01T20:38:03.793Z,114.90
2023-03-01T20:41:32.098Z,125.20
2023-03-01T20:44:59.151Z,117.80
2023-03-01T20:48:27.703Z,106.40
2023-03-01T20:51:59.688Z,108.90
2023-03-01T20:55:26.968Z,97.10
2023-03-01T20:58:55.850Z,98.00
2023-03-01T21:02:22.797Z,92.60
2023-03-01T21:05:51.432Z,86.50
2023-03-01T21:09:17.963Z,77.30
2023-03-01T21:12:44.711Z,82.30
2023-03-01T21:16:16.111Z,86.10
2023-03-01T21:19:47.060Z,88.40
2023-03-01T21:23:14.674Z,94.90
2023-03-01T21:26:41.767Z,94.60
2023-03-01T21:30:10.814Z,86.60
2023-03-01T21:33:42.691Z,74.30
2023-03-01T21:37:13.896Z,74.90
2023-03-01T21:40:43.419Z,77.50
2023-03-01T21:44:11.261Z,77.10
2023-03-01T21:47:39.629Z,82.40
2023-03-01T21:51:07.804Z,86.40
2023-03-01T21:54:35.207Z,82.30
2023-03-01T21:58:03.297Z,80.60
2023-03-01T22:01:41.585Z,79.80
2023-03-01T22:05:12.865Z,78.70
2023-03-01T22:08:39.806Z,81.40
2023-03-01T22:12:08.973Z,87.80
2023-03-01T22:15:36.657Z,87.60
2023-03-01T22:19:04.525Z,85.70
2023-03-01T22:22:35.520Z,87.80
2023-03-01T22:26:04.486Z,100.70
2023-03-01T22:29:33.267Z,105.50
2023-03-01T22:33:00.658Z,117.80
2023-03-01T22:36:31.554Z,121.80
2023-03-01T22:40:00.842Z,97.60
2023-03-01T22:43:28.403Z,87.50
2023-03-01T22:46:56.986Z,61.90
2023-03-01T22:50:24.336Z,66.50
2023-03-01T22:53:57.041Z,63.80
2023-03-01T22:57:24.279Z,61.50
2023-03-01T23:00:53.101Z,65.00
2023-03-01T23:04:20.946Z,66.50
2023-03-01T23:07:52.183Z,64.20
2023-03-01T23:11:22.441Z,71.10
2023-03-01T23:14:49.273Z,60.30
2023-03-01T23:18:19.051Z,71.10
2023-03-01T23:21:50.622Z,68.40
2023-03-01T23:25:18.584Z,102.60
2023-03-01T23:28:46.198Z,70.50
2023-03-01T23:32:17.445Z,69.90
2023-03-01T23:35:44.937Z,119.60
2023-03-01T23:39:13.868Z,70.80
2023-03-01T23:42:41.977Z,66.10
2023-03-01T23:46:14.663Z,63.30
2023-03-01T23:49:43.752Z,57.60
2023-03-01T23:53:12.382Z,57.10
2023-03-01T23:56:43.593Z,54.40
